sensor_id;sensor_type;location;lat;lon;timestamp;pressure;altitude;pressure_sealevel;temperature;humidity
32873;BME280;19224;52.462;16.898;2023-04-01T00:00:13;98361.49;;;10.20;100.00
32873;BME280;19224;52.462;16.898;2023-04-01T00:02:45;98355.98;;;10.16;100.00
32873;BME280;19224;52.462;16.898;2023-04-01T00:05:16;98352.55;;;10.14;100.00
32873;BME280;19224;52.462;16.898;2023-04-01T00:07:46;98350.09;;;10.11;100.00
32873;BME280;19224;52.462;16.898;2023-04-01T00:10:17;98354.87;;;10.13;100.00
32873;BME280;19224;52.462;16.898;2023-04-01T00:12:47;98355.68;;;10.08;100.00
32873;BME280;19224;52.462;16.898;2023-04-01T00:15:17;98355.08;;;10.10;100.00
32873;BME280;19224;52.462;16.898;2023-04-01T00:17:48;98351.78;;;10.06;100.00
32873;BME280;19224;52.462;16.898;2023-04-01T00:20:18;98356.82;;;10.11;100.00
32873;BME280;19224;52.462;16.898;2023-04-01T00:22:49;98348.65;;;10.18;100.00
32873;BME280;19224;52.462;16.898;2023-04-01T00:25:19;98345.96;;;10.18;100.00
32873;BME280;19224;52.462;16.898;2023-04-01T00:27:49;98340.48;;;10.19;100.00
32873;BME280;19224;52.462;16.898;2023-04-01T00:30:19;98343.81;;;10.05;100.00
32873;BME280;19224;52.462;16.898;2023-04-01T00:32:52;98348.65;;;10.00;100.00
32873;BME280;19224;52.462;16.898;2023-04-01T00:35:23;98347.98;;;10.09;100.00
32873;BME280;19224;52.462;16.898;2023-04-01T00:37:54;98348.52;;;10.14;100.00
32873;BME280;19224;52.462;16.898;2023-04-01T00:40:42;98346.94;;;10.17;100.00
32873;BME280;19224;52.462;16.898;2023-04-01T00:43:19;98346.13;;;10.22;100.00
32873;BME280;19224;52.462;16.898;2023-04-01T00:45:49;98344.38;;;10.21;100.00
32873;BME280;19224;52.462;16.898;2023-04-01T00:48:23;98337.39;;;10.13;100.00
32873;BME280;19224;52.462;16.898;2023-04-01T00:50:59;98338.94;;;10.10;100.00
32873;BME280;19224;52.462;16.898;2023-04-01T00:53:31;98341.42;;;10.13;100.00
32873;BME280;19224;52.462;16.898;2023-04-01T00:56:07;98342.91;;;10.17;100.00
32873;BME280;19224;52.462;16.898;2023-04-01T00:58:46;98335.57;;;10.19;100.00
32873;BME280;19224;52.462;16.898;2023-04-01T01:01:12;98334.73;;;10.18;100.00
32873;BME280;19224;52.462;16.898;2023-04-01T01:03:42;98340.82;;;10.15;100.00
32873;BME280;19224;52.462;16.898;2023-04-01T01:12:21;98329.72;;;10.19;100.00
32873;BME280;19224;52.462;16.898;2023-04-01T01:23:57;98323.34;;;10.15;100.00
32873;BME280;19224;52.462;16.898;2023-04-01T01:29:59;98325.13;;;10.09;100.00
32873;BME280;19224;52.462;16.898;2023-04-01T01:35:50;98325.73;;;10.07;100.00
32873;BME280;19224;52.462;16.898;2023-04-01T01:38:26;98320.72;;;10.08;100.00
32873;BME280;19224;52.462;16.898;2023-04-01T01:40:56;98321.86;;;10.11;100.00
32873;BME280;19224;52.462;16.898;2023-04-01T01:43:35;98330.77;;;10.11;100.00
32873;BME280;19224;52.462;16.898;2023-04-01T01:46:23;98325.31;;;10.18;100.00
32873;BME280;19224;52.462;16.898;2023-04-01T01:48:50;98331.47;;;10.26;100.00
32873;BME280;19224;52.462;16.898;2023-04-01T01:51:23;98328.03;;;10.24;100.00
32873;BME280;19224;52.462;16.898;2023-04-01T01:53:54;98329.11;;;10.21;100.00
32873;BME280;19224;52.462;16.898;2023-04-01T01:56:27;98330.06;;;10.15;100.00
32873;BME280;19224;52.462;16.898;2023-04-01T01:59:03;98326.30;;;10.17;100.00
32873;BME280;19224;52.462;16.898;2023-04-01T02:01:39;98329.98;;;10.27;100.00
32873;BME280;19224;52.462;16.898;2023-04-01T02:04:11;98325.95;;;10.22;100.00
32873;BME280;19224;52.462;16.898;2023-04-01T02:07:07;98324.31;;;10.14;100.00
32873;BME280;19224;52.462;16.898;2023-04-01T02:09:33;98323.20;;;10.11;100.00
32873;BME280;19224;52.462;16.898;2023-04-01T02:12:07;98326.80;;;10.04;100.00
32873;BME280;19224;52.462;16.898;2023-04-01T02:14:54;98327.67;;;10.05;100.00
32873;BME280;19224;52.462;16.898;2023-04-01T02:17:25;98322.33;;;10.10;100.00
32873;BME280;19224;52.462;16.898;2023-04-01T02:20:07;98322.36;;;10.16;100.00
32873;BME280;19224;52.462;16.898;2023-04-01T02:22:41;98325.42;;;10.17;100.00
32873;BME280;19224;52.462;16.898;2023-04-01T02:25:22;98322.29;;;10.23;100.00
32873;BME280;19224;52.462;16.898;2023-04-01T02:27:47;98319.23;;;10.22;100.00
32873;BME280;19224;52.462;16.898;2023-04-01T02:30:18;98319.23;;;10.22;100.00
32873;BME280;19224;52.462;16.898;2023-04-01T02:32:49;98322.18;;;10.30;100.00
32873;BME280;19224;52.462;16.898;2023-04-01T02:35:20;98316.67;;;10.26;100.00
32873;BME280;19224;52.462;16.898;2023-04-01T02:37:52;98321.68;;;10.25;100.00
32873;BME280;19224;52.462;16.898;2023-04-01T02:40:23;98321.02;;;10.16;100.00
32873;BME280;19224;52.462;16.898;2023-04-01T02:42:54;98317.95;;;10.15;100.00
32873;BME280;19224;52.462;16.898;2023-04-01T02:45:24;98317.08;;;10.14;100.00
32873;BME280;19224;52.462;16.898;2023-04-01T02:47:55;98322.09;;;10.13;100.00
32873;BME280;19224;52.462;16.898;2023-04-01T02:50:25;98319.77;;;10.14;100.00
32873;BME280;19224;52.462;16.898;2023-04-01T02:52:55;98325.92;;;10.16;100.00
32873;BME280;19224;52.462;16.898;2023-04-01T02:55:26;98328.18;;;10.10;100.00
32873;BME280;19224;52.462;16.898;2023-04-01T02:57:57;98326.70;;;10.06;100.00
32873;BME280;19224;52.462;16.898;2023-04-01T03:00:28;98332.62;;;10.11;100.00
32873;BME280;19224;52.462;16.898;2023-04-01T03:02:58;98333.59;;;10.15;100.00
32873;BME280;19224;52.462;16.898;2023-04-01T03:05:29;98336.69;;;10.16;100.00
32873;BME280;19224;52.462;16.898;2023-04-01T03:08:00;98335.09;;;10.19;100.00
32873;BME280;19224;52.462;16.898;2023-04-01T03:10:31;98339.47;;;10.15;100.00
32873;BME280;19224;52.462;16.898;2023-04-01T03:13:01;98338.27;;;10.19;100.00
32873;BME280;19224;52.462;16.898;2023-04-01T03:15:32;98338.63;;;10.20;100.00
32873;BME280;19224;52.462;16.898;2023-04-01T03:18:02;98334.83;;;10.17;100.00
32873;BME280;19224;52.462;16.898;2023-04-01T03:20:33;98347.98;;;10.09;100.00
32873;BME280;19224;52.462;16.898;2023-04-01T03:23:04;98342.60;;;10.09;100.00
32873;BME280;19224;52.462;16.898;2023-04-01T03:25:34;98341.63;;;10.10;100.00
32873;BME280;19224;52.462;16.898;2023-04-01T03:28:05;98339.71;;;10.12;100.00
32873;BME280;19224;52.462;16.898;2023-04-01T03:30:36;98337.39;;;10.13;100.00
32873;BME280;19224;52.462;16.898;2023-04-01T03:33:06;98336.15;;;10.11;100.00
32873;BME280;19224;52.462;16.898;2023-04-01T03:35:37;98336.55;;;10.00;100.00
32873;BME280;19224;52.462;16.898;2023-04-01T03:38:07;98337.28;;;9.84;100.00
32873;BME280;19224;52.462;16.898;2023-04-01T03:40:41;98336.20;;;9.86;100.00
32873;BME280;19224;52.462;16.898;2023-04-01T03:43:11;98345.96;;;10.00;100.00
32873;BME280;19224;52.462;16.898;2023-04-01T03:45:49;98340.18;;;9.99;100.00
32873;BME280;19224;52.462;16.898;2023-04-01T03:48:21;98340.18;;;9.99;100.00
32873;BME280;19224;52.462;16.898;2023-04-01T03:50:52;98335.58;;;10.01;100.00
32873;BME280;19224;52.462;16.898;2023-04-01T03:53:22;98340.89;;;10.08;100.00
32873;BME280;19224;52.462;16.898;2023-04-01T03:55:53;98343.70;;;9.94;100.00
32873;BME280;19224;52.462;16.898;2023-04-01T03:58:23;98341.08;;;9.87;100.00
32873;BME280;19224;52.462;16.898;2023-04-01T04:00:54;98345.66;;;9.92;100.00
32873;BME280;19224;52.462;16.898;2023-04-01T04:03:24;98350.80;;;9.95;100.00
32873;BME280;19224;52.462;16.898;2023-04-01T04:05:55;98359.61;;;9.97;100.00
32873;BME280;19224;52.462;16.898;2023-04-01T04:08:25;98358.87;;;9.95;100.00
32873;BME280;19224;52.462;16.898;2023-04-01T04:10:57;98363.70;;;9.84;100.00
32873;BME280;19224;52.462;16.898;2023-04-01T04:13:27;98357.41;;;9.78;100.00
32873;BME280;19224;52.462;16.898;2023-04-01T04:15:59;98359.63;;;9.79;100.00
32873;BME280;19224;52.462;16.898;2023-04-01T04:18:30;98357.73;;;9.74;100.00
32873;BME280;19224;52.462;16.898;2023-04-01T04:21:00;98363.57;;;9.68;100.00
32873;BME280;19224;52.462;16.898;2023-04-01T04:23:31;98364.91;;;9.68;100.00
32873;BME280;19224;52.462;16.898;2023-04-01T04:26:06;98370.80;;;9.73;100.00
32873;BME280;19224;52.462;16.898;2023-04-01T04:28:37;98371.17;;;9.74;100.00
32873;BME280;19224;52.462;16.898;2023-04-01T04:31:08;98376.22;;;9.78;100.00
32873;BME280;19224;52.462;16.898;2023-04-01T04:33:39;98378.06;;;9.78;100.00
32873;BME280;19224;52.462;16.898;2023-04-01T04:36:10;98374.17;;;9.82;100.00
32873;BME280;19224;52.462;16.898;2023-04-01T04:38:40;98373.62;;;9.77;100.00
32873;BME280;19224;52.462;16.898;2023-04-01T04:41:15;98373.81;;;9.68;100.00
32873;BME280;19224;52.462;16.898;2023-04-01T04:43:53;98376.50;;;9.68;100.00
32873;BME280;19224;52.462;16.898;2023-04-01T04:46:25;98375.66;;;9.68;100.00
32873;BME280;19224;52.462;16.898;2023-04-01T04:48:55;98385.73;;;9.77;100.00
32873;BME280;19224;52.462;16.898;2023-04-01T04:51:27;98384.38;;;9.77;100.00
32873;BME280;19224;52.462;16.898;2023-04-01T04:53:57;98382.75;;;9.87;100.00
32873;BME280;19224;52.462;16.898;2023-04-01T04:56:27;98385.61;;;9.91;100.00
32873;BME280;19224;52.462;16.898;2023-04-01T04:58:58;98385.44;;;9.87;100.00
32873;BME280;19224;52.462;16.898;2023-04-01T05:01:29;98384.93;;;9.82;100.00
32873;BME280;19224;52.462;16.898;2023-04-01T05:03:59;98385.91;;;9.81;100.00
32873;BME280;19224;52.462;16.898;2023-04-01T05:06:29;98384.19;;;9.80;100.00
32873;BME280;19224;52.462;16.898;2023-04-01T05:09:00;98397.54;;;9.87;100.00
32873;BME280;19224;52.462;16.898;2023-04-01T05:11:31;98388.59;;;9.81;100.00
32873;BME280;19224;52.462;16.898;2023-04-01T05:14:01;98392.66;;;9.86;100.00
32873;BME280;19224;52.462;16.898;2023-04-01T05:16:31;98399.66;;;9.89;100.00
32873;BME280;19224;52.462;16.898;2023-04-01T05:19:04;98400.14;;;9.76;100.00
32873;BME280;19224;52.462;16.898;2023-04-01T05:21:35;98402.36;;;9.64;100.00
32873;BME280;19224;52.462;16.898;2023-04-01T05:24:09;98411.72;;;9.71;100.00
32873;BME280;19224;52.462;16.898;2023-04-01T05:26:39;98412.59;;;9.59;100.00
32873;BME280;19224;52.462;16.898;2023-04-01T05:29:11;98408.79;;;9.56;100.00
32873;BME280;19224;52.462;16.898;2023-04-01T05:31:41;98407.45;;;9.56;100.00
32873;BME280;19224;52.462;16.898;2023-04-01T05:34:12;98412.41;;;9.55;100.00
32873;BME280;19224;52.462;16.898;2023-04-01T05:36:44;98412.91;;;9.54;100.00
32873;BME280;19224;52.462;16.898;2023-04-01T05:39:14;98411.07;;;9.55;100.00
32873;BME280;19224;52.462;16.898;2023-04-01T05:41:45;98415.09;;;9.55;100.00
32873;BME280;19224;52.462;16.898;2023-04-01T05:44:15;98420.17;;;9.47;100.00
32873;BME280;19224;52.462;16.898;2023-04-01T05:46:46;98421.63;;;9.58;100.00
32873;BME280;19224;52.462;16.898;2023-04-01T05:49:16;98425.06;;;9.60;100.00
32873;BME280;19224;52.462;16.898;2023-04-01T05:51:47;98423.02;;;9.63;100.00
32873;BME280;19224;52.462;16.898;2023-04-01T05:54:18;98424.73;;;9.64;100.00
32873;BME280;19224;52.462;16.898;2023-04-01T05:56:49;98426.81;;;9.54;100.00
32873;BME280;19224;52.462;16.898;2023-04-01T05:59:20;98423.34;;;9.59;100.00
32873;BME280;19224;52.462;16.898;2023-04-01T06:01:50;98425.20;;;9.64;100.00
32873;BME280;19224;52.462;16.898;2023-04-01T06:04:21;98429.23;;;9.64;100.00
32873;BME280;19224;52.462;16.898;2023-04-01T06:06:51;98428.99;;;9.61;100.00
32873;BME280;19224;52.462;16.898;2023-04-01T06:09:28;98433.72;;;9.58;100.00
32873;BME280;19224;52.462;16.898;2023-04-01T06:12:47;98436.73;;;9.53;100.00
32873;BME280;19224;52.462;16.898;2023-04-01T06:15:23;98435.25;;;9.55;100.00
32873;BME280;19224;52.462;16.898;2023-04-01T06:24:44;98444.19;;;9.55;100.00
32873;BME280;19224;52.462;16.898;2023-04-01T06:33:02;98451.33;;;9.62;100.00
32873;BME280;19224;52.462;16.898;2023-04-01T06:36:54;98453.28;;;9.72;100.00
32873;BME280;19224;52.462;16.898;2023-04-01T06:39:07;98452.78;;;9.73;100.00
32873;BME280;19224;52.462;16.898;2023-04-01T06:47:52;98461.19;;;9.56;100.00
32873;BME280;19224;52.462;16.898;2023-04-01T06:53:19;98461.16;;;9.68;100.00
32873;BME280;19224;52.462;16.898;2023-04-01T06:56:06;98462.47;;;9.75;100.00
32873;BME280;19224;52.462;16.898;2023-04-01T06:58:48;98469.00;;;9.71;100.00
32873;BME280;19224;52.462;16.898;2023-04-01T07:01:25;98472.09;;;9.60;100.00
32873;BME280;19224;52.462;16.898;2023-04-01T07:04:11;98474.06;;;9.76;100.00
32873;BME280;19224;52.462;16.898;2023-04-01T07:07:12;98476.75;;;9.76;100.00
32873;BME280;19224;52.462;16.898;2023-04-01T07:09:43;98477.72;;;9.75;100.00
32873;BME280;19224;52.462;16.898;2023-04-01T07:12:28;98479.22;;;9.91;100.00
32873;BME280;19224;52.462;16.898;2023-04-01T07:14:55;98482.33;;;9.98;100.00
32873;BME280;19224;52.462;16.898;2023-04-01T07:17:30;98484.72;;;10.15;100.00
32873;BME280;19224;52.462;16.898;2023-04-01T07:20:26;98482.91;;;10.03;100.00
32873;BME280;19224;52.462;16.898;2023-04-01T07:23:04;98496.09;;;9.93;100.00
32873;BME280;19224;52.462;16.898;2023-04-01T07:25:39;98494.42;;;9.98;100.00
32873;BME280;19224;52.462;16.898;2023-04-01T07:28:15;98498.59;;;10.09;100.00
32873;BME280;19224;52.462;16.898;2023-04-01T07:31:24;98504.47;;;10.08;100.00
32873;BME280;19224;52.462;16.898;2023-04-01T07:34:19;98504.23;;;10.24;100.00
32873;BME280;19224;52.462;16.898;2023-04-01T07:40:17;98507.98;;;10.34;100.00
32873;BME280;19224;52.462;16.898;2023-04-01T07:49:09;98516.67;;;10.37;100.00
32873;BME280;19224;52.462;16.898;2023-04-01T07:52:13;98514.87;;;10.56;100.00
32873;BME280;19224;52.462;16.898;2023-04-01T08:00:30;98522.72;;;10.59;100.00
32873;BME280;19224;52.462;16.898;2023-04-01T08:06:34;98540.06;;;10.91;100.00
32873;BME280;19224;52.462;16.898;2023-04-01T08:12:04;98541.20;;;10.81;100.00
32873;BME280;19224;52.462;16.898;2023-04-01T08:14:56;98544.27;;;10.82;100.00
32873;BME280;19224;52.462;16.898;2023-04-01T08:23:13;98560.16;;;10.98;100.00
32873;BME280;19224;52.462;16.898;2023-04-01T08:28:45;98569.59;;;11.16;100.00
32873;BME280;19224;52.462;16.898;2023-04-01T08:34:25;98571.97;;;11.26;100.00
32873;BME280;19224;52.462;16.898;2023-04-01T08:37:00;98567.94;;;11.08;100.00
32873;BME280;19224;52.462;16.898;2023-04-01T08:39:43;98573.56;;;10.87;100.00
32873;BME280;19224;52.462;16.898;2023-04-01T08:42:40;98578.49;;;10.75;100.00
32873;BME280;19224;52.462;16.898;2023-04-01T08:48:44;98588.53;;;10.60;100.00
32873;BME280;19224;52.462;16.898;2023-04-01T08:51:28;98582.91;;;10.76;100.00
32873;BME280;19224;52.462;16.898;2023-04-01T08:57:43;98595.18;;;11.16;100.00
32873;BME280;19224;52.462;16.898;2023-04-01T09:03:13;98600.80;;;10.95;100.00
32873;BME280;19224;52.462;16.898;2023-04-01T09:12:33;98607.08;;;10.83;100.00
32873;BME280;19224;52.462;16.898;2023-04-01T09:18:34;98609.14;;;11.39;100.00
32873;BME280;19224;52.462;16.898;2023-04-01T09:21:36;98619.45;;;11.39;100.00
32873;BME280;19224;52.462;16.898;2023-04-01T09:24:14;98627.00;;;10.62;100.00
32873;BME280;19224;52.462;16.898;2023-04-01T09:36:03;98643.42;;;10.52;100.00
32873;BME280;19224;52.462;16.898;2023-04-01T09:44:37;98655.43;;;10.41;100.00
32873;BME280;19224;52.462;16.898;2023-04-01T09:47:50;98660.55;;;10.51;100.00
32873;BME280;19224;52.462;16.898;2023-04-01T10:00:03;98674.60;;;10.05;100.00
32873;BME280;19224;52.462;16.898;2023-04-01T10:02:57;98676.98;;;10.09;100.00
32873;BME280;19224;52.462;16.898;2023-04-01T10:17:57;98688.70;;;10.40;100.00
32873;BME280;19224;52.462;16.898;2023-04-01T10:20:54;98695.11;;;10.45;100.00
32873;BME280;19224;52.462;16.898;2023-04-01T10:23:47;98696.95;;;10.37;100.00
32873;BME280;19224;52.462;16.898;2023-04-01T10:30:05;98702.22;;;10.14;100.00
32873;BME280;19224;52.462;16.898;2023-04-01T10:39:20;98707.84;;;9.77;100.00
32873;BME280;19224;52.462;16.898;2023-04-01T10:57:40;98727.58;;;10.10;100.00
32873;BME280;19224;52.462;16.898;2023-04-01T11:13:44;98732.49;;;11.17;100.00
32873;BME280;19224;52.462;16.898;2023-04-01T11:29:03;98747.27;;;10.62;100.00
32873;BME280;19224;52.462;16.898;2023-04-01T11:31:46;98747.86;;;10.60;100.00
32873;BME280;19224;52.462;16.898;2023-04-01T11:52:32;98775.49;;;10.37;100.00
32873;BME280;19224;52.462;16.898;2023-04-01T12:04:36;98801.42;;;9.85;100.00
32873;BME280;19224;52.462;16.898;2023-04-01T12:07:22;98805.33;;;9.67;100.00
32873;BME280;19224;52.462;16.898;2023-04-01T12:10:18;98802.09;;;9.41;100.00
32873;BME280;19224;52.462;16.898;2023-04-01T12:13:09;98807.43;;;9.62;100.00
32873;BME280;19224;52.462;16.898;2023-04-01T12:22:07;98809.86;;;9.45;100.00
32873;BME280;19224;52.462;16.898;2023-04-01T12:30:58;98826.83;;;9.53;100.00
32873;BME280;19224;52.462;16.898;2023-04-01T13:10:25;98864.98;;;9.93;100.00
32873;BME280;19224;52.462;16.898;2023-04-01T13:13:34;98867.28;;;10.06;100.00
32873;BME280;19224;52.462;16.898;2023-04-01T13:24:53;98883.83;;;9.72;100.00
32873;BME280;19224;52.462;16.898;2023-04-01T13:27:41;98883.08;;;9.70;100.00
32873;BME280;19224;52.462;16.898;2023-04-01T13:44:41;98896.28;;;9.87;100.00
32873;BME280;19224;52.462;16.898;2023-04-01T14:03:28;98895.13;;;10.84;100.00
32873;BME280;19224;52.462;16.898;2023-04-01T14:27:09;98923.08;;;10.43;100.00
32873;BME280;19224;52.462;16.898;2023-04-01T14:35:38;98928.76;;;9.91;100.00
32873;BME280;19224;52.462;16.898;2023-04-01T14:49:54;98945.07;;;9.39;100.00
32873;BME280;19224;52.462;16.898;2023-04-01T14:52:31;98949.77;;;9.49;100.00
32873;BME280;19224;52.462;16.898;2023-04-01T14:55:42;98953.15;;;9.60;100.00
32873;BME280;19224;52.462;16.898;2023-04-01T14:58:16;98950.45;;;9.74;100.00
32873;BME280;19224;52.462;16.898;2023-04-01T15:00:58;98954.47;;;9.88;100.00
32873;BME280;19224;52.462;16.898;2023-04-01T15:03:49;98962.95;;;9.82;100.00
32873;BME280;19224;52.462;16.898;2023-04-01T15:26:58;98993.00;;;9.17;100.00
32873;BME280;19224;52.462;16.898;2023-04-01T15:29:38;99001.63;;;9.15;100.00
32873;BME280;19224;52.462;16.898;2023-04-01T15:32:24;99003.50;;;9.29;100.00
32873;BME280;19224;52.462;16.898;2023-04-01T15:35:34;99009.08;;;9.10;100.00
32873;BME280;19224;52.462;16.898;2023-04-01T15:43:52;99018.55;;;9.31;100.00
32873;BME280;19224;52.462;16.898;2023-04-01T15:52:10;99028.36;;;9.39;100.00
32873;BME280;19224;52.462;16.898;2023-04-01T16:01:12;99043.17;;;9.46;100.00
32873;BME280;19224;52.462;16.898;2023-04-01T16:03:59;99048.32;;;9.35;100.00
32873;BME280;19224;52.462;16.898;2023-04-01T16:15:34;99071.03;;;8.85;100.00
32873;BME280;19224;52.462;16.898;2023-04-01T16:24:12;99090.16;;;8.94;100.00
32873;BME280;19224;52.462;16.898;2023-04-01T16:32:50;99100.30;;;8.89;100.00
32873;BME280;19224;52.462;16.898;2023-04-01T16:41:38;99118.14;;;8.75;100.00
32873;BME280;19224;52.462;16.898;2023-04-01T16:47:15;99126.00;;;8.62;100.00
32873;BME280;19224;52.462;16.898;2023-04-01T16:51:17;99134.45;;;8.39;100.00
32873;BME280;19224;52.462;16.898;2023-04-01T16:56:02;99154.30;;;8.11;100.00
32873;BME280;19224;52.462;16.898;2023-04-01T16:58:43;99152.72;;;7.99;100.00
32873;BME280;19224;52.462;16.898;2023-04-01T17:04:29;99160.77;;;7.73;100.00
32873;BME280;19224;52.462;16.898;2023-04-01T17:07:11;99166.78;;;7.78;100.00
32873;BME280;19224;52.462;16.898;2023-04-01T17:12:31;99166.36;;;7.77;100.00
32873;BME280;19224;52.462;16.898;2023-04-01T17:15:29;99172.38;;;7.74;100.00
32873;BME280;19224;52.462;16.898;2023-04-01T17:21:09;99183.33;;;7.69;100.00
32873;BME280;19224;52.462;16.898;2023-04-01T17:35:22;99204.00;;;7.49;100.00
32873;BME280;19224;52.462;16.898;2023-04-01T17:43:52;99212.38;;;7.51;100.00
32873;BME280;19224;52.462;16.898;2023-04-01T17:46:34;99216.44;;;7.41;100.00
32873;BME280;19224;52.462;16.898;2023-04-01T17:49:27;99219.05;;;7.34;100.00
32873;BME280;19224;52.462;16.898;2023-04-01T17:52:22;99219.91;;;7.43;100.00
32873;BME280;19224;52.462;16.898;2023-04-01T17:57:58;99224.97;;;7.41;100.00
32873;BME280;19224;52.462;16.898;2023-04-01T18:15:00;99239.92;;;7.36;100.00
32873;BME280;19224;52.462;16.898;2023-04-01T18:18:10;99246.66;;;7.26;100.00
32873;BME280;19224;52.462;16.898;2023-04-01T18:26:35;99256.71;;;6.85;100.00
32873;BME280;19224;52.462;16.898;2023-04-01T18:32:36;99268.11;;;6.80;100.00
32873;BME280;19224;52.462;16.898;2023-04-01T18:35:57;99283.08;;;6.84;100.00
32873;BME280;19224;52.462;16.898;2023-04-01T18:38:45;99280.62;;;6.69;100.00
32873;BME280;19224;52.462;16.898;2023-04-01T18:41:42;99284.28;;;6.77;100.00
32873;BME280;19224;52.462;16.898;2023-04-01T18:44:49;99300.78;;;6.68;100.00
32873;BME280;19224;52.462;16.898;2023-04-01T18:47:47;99292.27;;;6.68;100.00
32873;BME280;19224;52.462;16.898;2023-04-01T18:51:34;99299.69;;;6.72;100.00
32873;BME280;19224;52.462;16.898;2023-04-01T18:53:47;99307.17;;;6.74;100.00
32873;BME280;19224;52.462;16.898;2023-04-01T18:56:34;99316.69;;;6.61;100.00
32873;BME280;19224;52.462;16.898;2023-04-01T18:59:47;99317.03;;;6.63;100.00
32873;BME280;19224;52.462;16.898;2023-04-01T19:02:40;99328.73;;;6.61;100.00
32873;BME280;19224;52.462;16.898;2023-04-01T19:05:20;99339.17;;;6.57;100.00
32873;BME280;19224;52.462;16.898;2023-04-01T19:07:55;99343.98;;;6.49;100.00
32873;BME280;19224;52.462;16.898;2023-04-01T19:10:57;99343.83;;;6.42;100.00
32873;BME280;19224;52.462;16.898;2023-04-01T19:19:21;99353.53;;;6.34;100.00
32873;BME280;19224;52.462;16.898;2023-04-01T19:21:58;99359.08;;;6.40;100.00
32873;BME280;19224;52.462;16.898;2023-04-01T19:28:17;99358.53;;;6.32;100.00
32873;BME280;19224;52.462;16.898;2023-04-01T19:33:41;99378.25;;;6.19;100.00
32873;BME280;19224;52.462;16.898;2023-04-01T19:42:10;99384.34;;;6.23;100.00
32873;BME280;19224;52.462;16.898;2023-04-01T19:45:00;99387.84;;;6.13;100.00
32873;BME280;19224;52.462;16.898;2023-04-01T19:47:58;99384.98;;;6.18;100.00
32873;BME280;19224;52.462;16.898;2023-04-01T19:50:57;99399.82;;;6.15;100.00
32873;BME280;19224;52.462;16.898;2023-04-01T19:53:51;99407.12;;;6.21;100.00
32873;BME280;19224;52.462;16.898;2023-04-01T19:56:23;99409.30;;;6.22;100.00
32873;BME280;19224;52.462;16.898;2023-04-01T20:02:26;99419.20;;;6.20;100.00
32873;BME280;19224;52.462;16.898;2023-04-01T20:04:59;99416.16;;;5.86;100.00
32873;BME280;19224;52.462;16.898;2023-04-01T20:07:44;99424.47;;;5.90;100.00
32873;BME280;19224;52.462;16.898;2023-04-01T20:17:38;99445.99;;;5.74;100.00
32873;BME280;19224;52.462;16.898;2023-04-01T20:19:42;99443.17;;;5.67;100.00
32873;BME280;19224;52.462;16.898;2023-04-01T20:25:52;99448.34;;;5.60;100.00
32873;BME280;19224;52.462;16.898;2023-04-01T20:31:42;99455.19;;;5.55;100.00
32873;BME280;19224;52.462;16.898;2023-04-01T20:34:50;99457.33;;;5.57;100.00
32873;BME280;19224;52.462;16.898;2023-04-01T20:37:47;99465.75;;;5.70;100.00
32873;BME280;19224;52.462;16.898;2023-04-01T20:46:22;99477.14;;;5.63;100.00
32873;BME280;19224;52.462;16.898;2023-04-01T20:49:26;99483.09;;;5.58;100.00
32873;BME280;19224;52.462;16.898;2023-04-01T20:57:34;99485.68;;;5.61;100.00
32873;BME280;19224;52.462;16.898;2023-04-01T21:00:27;99489.80;;;5.70;100.00
32873;BME280;19224;52.462;16.898;2023-04-01T21:03:34;99500.23;;;5.76;100.00
32873;BME280;19224;52.462;16.898;2023-04-01T21:12:32;99510.91;;;5.53;100.00
32873;BME280;19224;52.462;16.898;2023-04-01T21:15:29;99499.88;;;5.62;100.00
32873;BME280;19224;52.462;16.898;2023-04-01T21:30:24;99544.00;;;5.49;100.00
32873;BME280;19224;52.462;16.898;2023-04-01T21:42:26;99557.43;;;5.34;100.00
32873;BME280;19224;52.462;16.898;2023-04-01T21:45:19;99556.98;;;5.35;100.00
32873;BME280;19224;52.462;16.898;2023-04-01T21:48:22;99553.59;;;5.30;100.00
32873;BME280;19224;52.462;16.898;2023-04-01T22:05:28;99580.69;;;5.31;100.00
32873;BME280;19224;52.462;16.898;2023-04-01T22:08:41;99577.05;;;5.33;100.00
32873;BME280;19224;52.462;16.898;2023-04-01T22:11:39;99586.05;;;5.18;100.00
32873;BME280;19224;52.462;16.898;2023-04-01T22:14:21;99589.30;;;5.01;100.00
32873;BME280;19224;52.462;16.898;2023-04-01T22:16:58;99598.59;;;4.90;100.00
32873;BME280;19224;52.462;16.898;2023-04-01T22:19:41;99597.81;;;4.99;100.00
32873;BME280;19224;52.462;16.898;2023-04-01T22:22:21;99597.41;;;4.98;100.00
32873;BME280;19224;52.462;16.898;2023-04-01T22:25:21;99605.56;;;4.81;100.00
32873;BME280;19224;52.462;16.898;2023-04-01T22:28:06;99615.97;;;4.88;100.00
32873;BME280;19224;52.462;16.898;2023-04-01T22:30:45;99609.53;;;4.95;100.00
32873;BME280;19224;52.462;16.898;2023-04-01T22:33:31;99618.41;;;4.68;100.00
32873;BME280;19224;52.462;16.898;2023-04-01T22:47:22;99627.31;;;4.95;100.00
32873;BME280;19224;52.462;16.898;2023-04-01T22:50:14;99635.80;;;4.94;100.00
32873;BME280;19224;52.462;16.898;2023-04-01T22:52:48;99636.20;;;4.95;100.00
32873;BME280;19224;52.462;16.898;2023-04-01T22:55:28;99645.73;;;5.02;100.00
32873;BME280;19224;52.462;16.898;2023-04-01T22:58:16;99646.80;;;4.84;100.00
32873;BME280;19224;52.462;16.898;2023-04-01T23:00:56;99651.28;;;4.83;100.00
32873;BME280;19224;52.462;16.898;2023-04-01T23:03:40;99653.89;;;4.70;100.00
32873;BME280;19224;52.462;16.898;2023-04-01T23:06:09;99662.76;;;4.58;100.00
32873;BME280;19224;52.462;16.898;2023-04-01T23:12:10;99669.59;;;4.52;100.00
32873;BME280;19224;52.462;16.898;2023-04-01T23:14:53;99668.67;;;4.53;100.00